createdAt,value
2018-07-07T00:00:31.205Z,24.20
2018-07-07T00:02:59.903Z,24.20
2018-07-07T00:05:28.624Z,24.10
2018-07-07T00:07:57.288Z,24.10
2018-07-07T00:10:28.776Z,24.00
2018-07-07T00:12:57.459Z,24.00
2018-07-07T00:15:26.116Z,24.00
2018-07-07T00:17:54.803Z,23.90
2018-07-07T00:20:24.455Z,23.90
2018-07-07T00:22:53.141Z,23.90
2018-07-07T00:25:22.105Z,23.80
2018-07-07T00:27:51.191Z,23.80
2018-07-07T00:30:19.959Z,23.70
2018-07-07T00:32:49.286Z,23.70
2018-07-07T00:35:17.972Z,23.60
2018-07-07T00:37:46.688Z,23.60
2018-07-07T00:40:15.475Z,23.70
2018-07-07T00:42:44.121Z,23.60
2018-07-07T00:45:12.872Z,23.60
2018-07-07T00:47:41.553Z,23.60
2018-07-07T00:50:10.272Z,23.60
2018-07-07T00:52:38.991Z,23.50
2018-07-07T00:55:10.192Z,23.50
2018-07-07T00:57:38.841Z,23.50
2018-07-07T01:00:07.506Z,23.50
2018-07-07T01:02:37.180Z,23.50
2018-07-07T01:05:06.080Z,23.40
2018-07-07T01:07:34.797Z,23.40
2018-07-07T01:10:04.541Z,23.40
2018-07-07T01:12:33.250Z,23.40
2018-07-07T01:15:01.977Z,23.40
2018-07-07T01:17:30.758Z,23.40
2018-07-07T01:19:59.524Z,23.30
2018-07-07T01:22:28.213Z,23.30
2018-07-07T01:24:56.885Z,23.30
2018-07-07T01:27:25.553Z,23.30
2018-07-07T01:29:55.203Z,23.30
2018-07-07T01:32:23.884Z,23.30
2018-07-07T01:34:52.851Z,23.30
2018-07-07T01:37:21.512Z,23.30
2018-07-07T01:39:51.068Z,23.30
2018-07-07T01:42:20.115Z,23.30
2018-07-07T01:44:49.476Z,23.30
2018-07-07T01:47:18.973Z,23.30
2018-07-07T01:49:47.637Z,23.30
2018-07-07T01:52:16.317Z,23.20
2018-07-07T01:54:44.991Z,23.20
2018-07-07T01:57:14.266Z,23.20
2018-07-07T01:59:42.900Z,23.20
2018-07-07T02:02:13.128Z,23.20
2018-07-07T02:04:41.796Z,23.20
2018-07-07T02:07:11.134Z,23.20
2018-07-07T02:09:39.796Z,23.20
2018-07-07T02:12:08.460Z,23.20
2018-07-07T02:14:38.120Z,23.20
2018-07-07T02:17:06.914Z,23.20
2018-07-07T02:19:35.564Z,23.20
2018-07-07T02:22:04.392Z,23.20
2018-07-07T02:27:01.345Z,23.30
2018-07-07T02:29:29.992Z,23.30
2018-07-07T02:31:58.753Z,23.40
2018-07-07T02:34:27.416Z,23.30
2018-07-07T02:36:56.064Z,23.30
2018-07-07T02:39:24.724Z,23.30
2018-07-07T02:41:53.386Z,23.30
2018-07-07T02:44:22.054Z,23.20
2018-07-07T02:46:50.725Z,23.20
2018-07-07T02:49:19.385Z,23.20
2018-07-07T02:51:48.093Z,23.10
2018-07-07T02:54:16.762Z,23.10
2018-07-07T02:56:45.505Z,23.10
2018-07-07T02:59:14.156Z,23.10
2018-07-07T03:01:42.822Z,23.00
2018-07-07T03:04:11.502Z,22.90
2018-07-07T03:06:40.239Z,22.90
2018-07-07T03:09:08.969Z,22.90
2018-07-07T03:11:37.629Z,22.80
2018-07-07T03:14:06.512Z,22.80
2018-07-07T03:16:36.059Z,22.70
2018-07-07T03:19:08.371Z,22.60
2018-07-07T03:21:37.155Z,22.50
2018-07-07T03:26:34.265Z,22.40
2018-07-07T03:29:02.996Z,22.40
2018-07-07T03:31:31.656Z,22.50
2018-07-07T03:34:00.309Z,22.40
2018-07-07T03:36:29.101Z,22.40
2018-07-07T03:38:57.747Z,22.50
2018-07-07T03:41:26.430Z,22.40
2018-07-07T03:43:55.124Z,22.40
2018-07-07T03:46:23.806Z,22.30
2018-07-07T03:48:52.441Z,22.30
2018-07-07T03:51:21.112Z,22.30
2018-07-07T03:53:50.317Z,22.30
2018-07-07T03:56:19.335Z,22.20
2018-07-07T03:58:48.949Z,22.00
2018-07-07T04:01:21.689Z,21.90
2018-07-07T04:03:50.388Z,21.80
2018-07-07T04:06:19.113Z,21.80
2018-07-07T04:08:47.774Z,21.80
2018-07-07T04:11:16.604Z,21.70
2018-07-07T04:13:45.321Z,21.70
2018-07-07T04:16:13.976Z,21.60
2018-07-07T04:18:43.205Z,21.50
2018-07-07T04:21:12.452Z,21.30
2018-07-07T04:23:41.785Z,21.30
2018-07-07T04:26:11.969Z,21.20
2018-07-07T04:28:40.628Z,21.10
2018-07-07T04:31:09.276Z,21.20
2018-07-07T04:36:07.194Z,21.20
2018-07-07T04:38:35.832Z,21.20
2018-07-07T04:41:04.542Z,21.20
2018-07-07T04:43:33.248Z,21.30
2018-07-07T04:46:02.933Z,21.40
2018-07-07T04:48:31.665Z,21.50
2018-07-07T04:51:00.325Z,21.60
2018-07-07T04:53:29.033Z,21.60
2018-07-07T04:55:57.748Z,21.70
2018-07-07T04:58:26.460Z,21.70
2018-07-07T05:00:55.121Z,21.70
2018-07-07T05:03:23.788Z,21.80
2018-07-07T05:05:52.443Z,21.90
2018-07-07T05:08:21.704Z,21.90
2018-07-07T05:10:51.020Z,22.00
2018-07-07T05:13:19.653Z,22.00
2018-07-07T05:15:48.371Z,22.10
2018-07-07T05:20:45.356Z,22.20
2018-07-07T05:23:13.987Z,22.20
2018-07-07T05:25:42.792Z,22.20
2018-07-07T05:28:11.489Z,22.30
2018-07-07T05:30:40.148Z,22.40
2018-07-07T05:33:09.503Z,22.40
2018-07-07T05:35:39.133Z,22.50
2018-07-07T05:38:07.822Z,22.60
2018-07-07T05:40:36.636Z,22.70
2018-07-07T05:43:06.040Z,22.90
2018-07-07T05:45:34.822Z,23.00
2018-07-07T05:48:03.665Z,23.10
2018-07-07T05:50:32.344Z,23.30
2018-07-07T05:53:01.017Z,23.40
2018-07-07T05:55:29.685Z,23.50
2018-07-07T05:57:58.376Z,23.80
2018-07-07T06:00:27.048Z,24.20
2018-07-07T06:02:56.340Z,24.90
2018-07-07T06:05:26.792Z,25.50
2018-07-07T06:07:55.579Z,26.10
2018-07-07T06:10:25.396Z,26.70
2018-07-07T06:12:57.064Z,27.30
2018-07-07T06:20:24.947Z,28.80
2018-07-07T06:23:01.518Z,29.30
2018-07-07T06:25:30.284Z,29.60
2018-07-07T06:27:59.220Z,30.00
2018-07-07T06:30:27.998Z,30.50
2018-07-07T06:32:56.649Z,30.90
2018-07-07T06:35:25.297Z,31.20
2018-07-07T06:37:53.979Z,31.30
2018-07-07T06:40:22.689Z,31.60
2018-07-07T06:42:51.344Z,32.00
2018-07-07T06:45:19.984Z,32.30
2018-07-07T06:47:48.637Z,32.70
2018-07-07T06:50:17.350Z,32.70
2018-07-07T06:52:46.005Z,33.00
2018-07-07T06:55:14.644Z,33.00
2018-07-07T06:57:43.305Z,33.20
2018-07-07T07:00:12.066Z,33.30
2018-07-07T07:02:40.704Z,33.60
2018-07-07T07:05:09.379Z,33.70
2018-07-07T07:07:38.050Z,33.80
2018-07-07T07:10:06.789Z,33.80
2018-07-07T07:12:35.453Z,34.00
2018-07-07T07:15:04.319Z,34.10
2018-07-07T07:17:32.993Z,34.10
2018-07-07T07:20:01.662Z,33.90
2018-07-07T07:22:30.317Z,34.30
2018-07-07T07:24:59.013Z,34.30
2018-07-07T07:27:27.676Z,34.40
2018-07-07T07:29:56.332Z,34.40
2018-07-07T07:32:24.997Z,34.30
2018-07-07T07:34:53.640Z,34.00
2018-07-07T07:37:22.288Z,34.10
2018-07-07T07:39:50.969Z,34.00
2018-07-07T07:42:19.646Z,33.80
2018-07-07T07:44:48.319Z,33.80
2018-07-07T07:47:16.961Z,33.80
2018-07-07T07:49:45.617Z,33.90
2018-07-07T07:54:42.608Z,34.10
2018-07-07T07:57:11.273Z,34.10
2018-07-07T07:59:39.909Z,33.90
2018-07-07T08:02:08.547Z,34.10
2018-07-07T08:04:37.212Z,33.90
2018-07-07T08:07:05.875Z,33.70
2018-07-07T08:09:34.519Z,33.60
2018-07-07T08:12:03.192Z,33.40
2018-07-07T08:14:31.835Z,33.40
2018-07-07T08:17:00.473Z,33.40
2018-07-07T08:19:29.194Z,33.20
2018-07-07T08:21:57.868Z,33.10
2018-07-07T08:24:26.528Z,33.20
2018-07-07T08:26:55.262Z,33.20
2018-07-07T08:29:23.948Z,33.40
2018-07-07T08:31:52.597Z,33.50
2018-07-07T08:34:21.278Z,33.70
2018-07-07T08:36:49.919Z,33.80
2018-07-07T08:39:18.593Z,33.80
2018-07-07T08:41:47.287Z,33.60
2018-07-07T08:44:15.901Z,33.70
2018-07-07T08:46:44.531Z,33.70
2018-07-07T08:49:13.201Z,33.80
2018-07-07T08:51:41.856Z,33.80
2018-07-07T08:54:11.111Z,33.70
2018-07-07T08:56:40.331Z,33.80
2018-07-07T08:59:11.739Z,33.50
2018-07-07T09:01:40.847Z,33.40
2018-07-07T09:04:16.564Z,33.20
2018-07-07T09:06:47.065Z,33.20
2018-07-07T09:09:15.680Z,33.10
2018-07-07T09:11:44.351Z,33.10
2018-07-07T09:14:13.013Z,33.10
2018-07-07T09:16:41.696Z,33.20
2018-07-07T09:19:10.326Z,33.30
2018-07-07T09:21:39.120Z,33.30
2018-07-07T09:24:08.140Z,33.30
2018-07-07T09:26:36.812Z,33.40
2018-07-07T09:29:05.458Z,33.40
2018-07-07T09:31:34.084Z,33.50
2018-07-07T09:34:02.719Z,33.50
2018-07-07T09:36:31.372Z,33.50
2018-07-07T09:39:01.767Z,33.60
2018-07-07T09:41:33.223Z,33.60
2018-07-07T09:44:02.561Z,33.80
2018-07-07T09:46:32.074Z,33.80
2018-07-07T09:49:00.700Z,33.70
2018-07-07T09:51:29.349Z,33.80
2018-07-07T09:56:26.242Z,33.80
2018-07-07T09:58:54.926Z,33.90
2018-07-07T10:01:23.585Z,34.00
2018-07-07T10:03:52.231Z,34.00
2018-07-07T10:06:20.878Z,34.00
2018-07-07T10:08:49.504Z,34.10
2018-07-07T10:11:18.141Z,34.20
2018-07-07T10:13:46.763Z,34.30
2018-07-07T10:16:15.367Z,34.50
2018-07-07T10:18:43.981Z,34.70
2018-07-07T10:21:12.600Z,34.80
2018-07-07T10:23:41.227Z,35.10
2018-07-07T10:26:09.872Z,35.10
2018-07-07T10:28:38.484Z,35.00
2018-07-07T10:31:07.165Z,35.10
2018-07-07T10:33:36.237Z,35.00
2018-07-07T10:36:05.252Z,35.10
2018-07-07T10:38:34.880Z,35.00
2018-07-07T10:41:03.556Z,35.10
2018-07-07T10:43:32.308Z,35.30
2018-07-07T10:46:00.971Z,35.30
2018-07-07T10:48:30.640Z,35.30
2018-07-07T10:50:59.464Z,35.40
2018-07-07T10:53:28.260Z,35.40
2018-07-07T10:55:57.032Z,35.50
2018-07-07T10:58:25.758Z,35.70
2018-07-07T11:00:54.713Z,35.70
2018-07-07T11:03:23.355Z,35.90
2018-07-07T11:05:52.712Z,36.00
2018-07-07T11:08:21.366Z,36.00
2018-07-07T11:10:50.002Z,36.10
2018-07-07T11:13:18.912Z,36.10
2018-07-07T11:15:48.595Z,36.10
2018-07-07T11:18:17.265Z,36.10
2018-07-07T11:20:45.916Z,36.20
2018-07-07T11:23:14.531Z,36.30
2018-07-07T11:25:43.212Z,36.20
2018-07-07T11:28:11.969Z,36.20
2018-07-07T11:30:40.561Z,36.20
2018-07-07T11:33:09.183Z,36.00
2018-07-07T11:35:37.804Z,36.10
2018-07-07T11:38:07.383Z,36.10
2018-07-07T11:40:36.013Z,36.20
2018-07-07T11:43:04.780Z,36.10
2018-07-07T11:45:33.440Z,36.10
2018-07-07T11:48:02.288Z,36.10
2018-07-07T11:50:30.943Z,36.20
2018-07-07T11:52:59.576Z,36.40
2018-07-07T11:55:28.248Z,36.40
2018-07-07T12:00:26.633Z,36.50
2018-07-07T12:02:57.008Z,36.40
2018-07-07T12:08:00.831Z,36.30
2018-07-07T12:10:24.345Z,36.30
2018-07-07T12:15:21.344Z,36.30
2018-07-07T12:17:50.013Z,36.40
2018-07-07T12:20:18.879Z,36.50
2018-07-07T12:22:47.540Z,36.50
2018-07-07T12:25:16.178Z,36.40
2018-07-07T12:27:45.131Z,36.40
2018-07-07T12:30:13.756Z,36.40
2018-07-07T12:32:42.457Z,36.60
2018-07-07T12:35:11.129Z,36.60
2018-07-07T12:37:39.776Z,36.70
2018-07-07T12:40:08.447Z,36.70
2018-07-07T12:42:37.512Z,36.80
2018-07-07T12:45:06.268Z,36.80
2018-07-07T12:47:34.941Z,36.80
2018-07-07T12:50:03.741Z,36.70
2018-07-07T12:52:32.489Z,36.70
2018-07-07T12:55:01.107Z,36.50
2018-07-07T12:57:29.755Z,36.50
2018-07-07T12:59:58.491Z,36.60
2018-07-07T13:02:27.169Z,36.60
2018-07-07T13:04:56.752Z,36.60
2018-07-07T13:07:25.412Z,36.60
2018-07-07T13:09:54.201Z,36.70
2018-07-07T13:12:22.837Z,36.70
2018-07-07T13:14:51.548Z,36.80
2018-07-07T13:17:20.167Z,36.90
2018-07-07T13:19:48.800Z,36.70
2018-07-07T13:22:17.508Z,36.70
2018-07-07T13:24:46.149Z,36.70
2018-07-07T13:29:43.063Z,36.60
2018-07-07T13:32:11.717Z,36.70
2018-07-07T13:34:40.568Z,36.50
2018-07-07T13:37:09.204Z,36.40
2018-07-07T13:39:41.188Z,36.50
2018-07-07T13:42:10.751Z,36.50
2018-07-07T13:44:39.704Z,36.40
2018-07-07T13:47:08.857Z,36.40
2018-07-07T13:49:38.360Z,36.30
2018-07-07T13:52:07.168Z,36.20
2018-07-07T13:54:36.037Z,36.20
2018-07-07T13:57:05.177Z,36.20
2018-07-07T13:59:33.812Z,36.10
2018-07-07T14:02:02.460Z,36.20
2018-07-07T14:04:31.068Z,36.00
2018-07-07T14:07:00.197Z,36.00
2018-07-07T14:09:28.996Z,36.10
2018-07-07T14:11:57.668Z,35.80
2018-07-07T14:14:26.284Z,35.60
2018-07-07T14:16:54.956Z,35.50
2018-07-07T14:19:23.591Z,35.30
2018-07-07T14:21:52.211Z,34.90
2018-07-07T14:24:20.829Z,34.80
2018-07-07T14:26:49.483Z,34.70
2018-07-07T14:29:18.096Z,34.60
2018-07-07T14:31:46.818Z,34.70
2018-07-07T14:34:15.416Z,34.90
2018-07-07T14:36:44.068Z,34.90
2018-07-07T14:39:12.787Z,35.00
2018-07-07T14:41:42.379Z,35.00
2018-07-07T14:44:10.996Z,35.10
2018-07-07T14:46:39.618Z,35.20
2018-07-07T14:49:08.240Z,35.10
2018-07-07T14:51:36.866Z,35.10
2018-07-07T14:54:05.593Z,35.10
2018-07-07T14:59:02.484Z,35.10
2018-07-07T15:01:31.141Z,35.10
2018-07-07T15:04:03.686Z,35.10
2018-07-07T15:06:32.322Z,35.10
2018-07-07T15:09:00.932Z,35.10
2018-07-07T15:11:29.616Z,34.90
2018-07-07T15:13:58.236Z,34.90
2018-07-07T15:16:26.929Z,35.00
2018-07-07T15:18:55.561Z,35.00
2018-07-07T15:21:24.199Z,35.00
2018-07-07T15:23:52.824Z,34.90
2018-07-07T15:26:21.456Z,35.00
2018-07-07T15:28:50.095Z,34.90
2018-07-07T15:31:18.721Z,34.90
2018-07-07T15:33:47.430Z,34.70
2018-07-07T15:36:16.064Z,34.60
2018-07-07T15:38:44.756Z,34.40
2018-07-07T15:41:13.484Z,34.20
2018-07-07T15:43:42.148Z,34.10
2018-07-07T15:46:10.805Z,34.00
2018-07-07T15:48:39.721Z,33.90
2018-07-07T15:51:08.416Z,33.80
2018-07-07T15:53:37.077Z,33.70
2018-07-07T15:56:05.787Z,33.70
2018-07-07T15:58:34.423Z,33.70
2018-07-07T16:02:32.508Z,33.70
2018-07-07T16:05:01.217Z,33.80
2018-07-07T16:07:29.965Z,33.80
2018-07-07T16:09:58.616Z,33.90
2018-07-07T16:12:27.297Z,33.90
2018-07-07T16:14:56.135Z,33.80
2018-07-07T16:17:24.788Z,33.90
2018-07-07T16:19:53.500Z,33.80
2018-07-07T16:22:23.228Z,33.80
2018-07-07T16:24:51.861Z,33.90
2018-07-07T16:27:20.575Z,33.90
2018-07-07T16:29:49.225Z,33.90
2018-07-07T16:32:18.648Z,33.80
2018-07-07T16:34:47.470Z,33.80
2018-07-07T16:37:16.045Z,33.80
2018-07-07T16:39:44.735Z,33.70
2018-07-07T16:42:18.160Z,33.70
2018-07-07T16:44:51.268Z,33.60
2018-07-07T16:47:31.881Z,33.60
2018-07-07T16:50:02.981Z,33.50
2018-07-07T16:52:38.112Z,33.40
2018-07-07T16:55:07.065Z,33.30
2018-07-07T16:57:35.892Z,33.40
2018-07-07T17:00:04.605Z,33.30
2018-07-07T17:05:02.929Z,33.30
2018-07-07T17:07:31.761Z,33.20
2018-07-07T17:10:00.551Z,33.10
2018-07-07T17:12:30.383Z,33.10
2018-07-07T17:15:00.467Z,33.10
2018-07-07T17:17:30.560Z,33.00
2018-07-07T17:19:59.912Z,32.90
2018-07-07T17:22:28.876Z,32.90
2018-07-07T17:24:58.522Z,32.90
2018-07-07T17:29:56.264Z,32.80
2018-07-07T17:32:25.272Z,32.80
2018-07-07T17:34:54.158Z,32.70
2018-07-07T17:37:23.340Z,32.70
2018-07-07T17:39:52.216Z,32.70
2018-07-07T17:42:21.995Z,32.70
2018-07-07T17:44:50.984Z,32.60
2018-07-07T17:47:19.880Z,32.70
2018-07-07T17:53:05.816Z,32.50
2018-07-07T17:55:34.591Z,32.50
2018-07-07T17:58:03.465Z,32.50
2018-07-07T18:00:32.284Z,32.50
2018-07-07T18:03:01.130Z,32.40
2018-07-07T18:05:29.753Z,32.40
2018-07-07T18:07:58.373Z,32.40
2018-07-07T18:10:26.992Z,32.30
2018-07-07T18:12:55.643Z,32.30
2018-07-07T18:15:24.382Z,32.20
2018-07-07T18:17:53.096Z,32.10
2018-07-07T18:20:21.804Z,32.00
2018-07-07T18:22:50.743Z,31.80
2018-07-07T18:25:20.149Z,31.70
2018-07-07T18:27:48.832Z,31.60
2018-07-07T18:30:17.557Z,31.60
2018-07-07T18:32:47.313Z,31.50
2018-07-07T18:35:16.032Z,31.40
2018-07-07T18:37:45.496Z,31.30
2018-07-07T18:40:14.105Z,31.20
2018-07-07T18:42:42.851Z,31.20
2018-07-07T18:45:11.496Z,31.10
2018-07-07T18:47:40.157Z,31.00
2018-07-07T18:50:08.863Z,30.90
2018-07-07T18:52:40.740Z,30.90
2018-07-07T18:55:09.365Z,30.80
2018-07-07T18:57:38.080Z,30.80
2018-07-07T19:00:06.806Z,30.80
2018-07-07T19:02:38.516Z,30.70
2018-07-07T19:05:07.192Z,30.70
2018-07-07T19:07:35.856Z,30.50
2018-07-07T19:10:04.732Z,30.30
2018-07-07T19:12:33.424Z,30.20
2018-07-07T19:15:07.372Z,30.20
2018-07-07T19:17:36.106Z,30.10
2018-07-07T19:20:04.972Z,30.10
2018-07-07T19:22:39.147Z,30.00
2018-07-07T19:25:13.221Z,30.00
2018-07-07T19:27:41.856Z,29.90
2018-07-07T19:32:44.248Z,29.60
2018-07-07T19:35:18.412Z,29.50
2018-07-07T19:37:47.076Z,29.30
2018-07-07T19:40:15.840Z,29.30
2018-07-07T19:42:44.728Z,29.30
2018-07-07T19:45:13.375Z,29.30
2018-07-07T19:50:11.264Z,29.20
2018-07-07T19:52:39.928Z,29.00
2018-07-07T19:55:08.681Z,29.00
2018-07-07T19:57:37.985Z,28.80
2018-07-07T20:00:06.655Z,28.60
2018-07-07T20:02:35.356Z,28.50
2018-07-07T20:05:04.071Z,28.50
2018-07-07T20:07:33.090Z,28.40
2018-07-07T20:10:01.704Z,28.30
2018-07-07T20:12:30.352Z,28.10
2018-07-07T20:14:58.994Z,27.90
2018-07-07T20:17:38.600Z,27.80
2018-07-07T20:20:43.771Z,27.70
2018-07-07T20:23:14.624Z,27.50
2018-07-07T20:25:47.722Z,27.30
2018-07-07T20:28:22.355Z,27.20
2018-07-07T20:30:58.929Z,27.10
2018-07-07T20:33:32.581Z,26.90
2018-07-07T20:36:03.715Z,26.80
2018-07-07T20:38:36.059Z,26.70
2018-07-07T20:41:07.412Z,26.50
2018-07-07T20:43:36.595Z,26.40
2018-07-07T20:46:05.268Z,26.30
2018-07-07T20:48:34.010Z,26.30
2018-07-07T20:51:05.882Z,26.20
2018-07-07T20:53:34.531Z,26.10
2018-07-07T20:56:07.237Z,25.90
2018-07-07T20:58:37.309Z,25.80
2018-07-07T21:01:06.281Z,25.60
2018-07-07T21:04:59.685Z,25.40
2018-07-07T21:07:32.855Z,25.20
2018-07-07T21:10:01.693Z,25.00
2018-07-07T21:12:30.714Z,24.90
2018-07-07T21:14:59.544Z,24.90
2018-07-07T21:17:29.116Z,24.90
2018-07-07T21:19:59.289Z,24.80
2018-07-07T21:22:34.076Z,24.80
2018-07-07T21:25:02.766Z,24.70
2018-07-07T21:27:31.832Z,24.70
2018-07-07T21:30:00.548Z,24.70
2018-07-07T21:32:29.644Z,24.60
2018-07-07T21:34:58.804Z,24.50
2018-07-07T21:37:30.532Z,24.40
2018-07-07T21:39:59.148Z,24.30
2018-07-07T21:42:27.786Z,24.30
2018-07-07T21:44:56.480Z,24.20
2018-07-07T21:47:25.133Z,24.10
2018-07-07T21:49:53.827Z,24.00
2018-07-07T21:52:23.607Z,23.80
2018-07-07T21:54:52.327Z,23.80
2018-07-07T21:57:26.657Z,23.60
2018-07-07T21:59:57.244Z,23.60
2018-07-07T22:02:31.549Z,23.50
2018-07-07T22:05:05.917Z,23.40
2018-07-07T22:07:41.978Z,23.30
2018-07-07T22:10:10.824Z,23.20
2018-07-07T22:12:39.655Z,23.20
2018-07-07T22:15:08.371Z,23.20
2018-07-07T22:17:37.274Z,23.10
2018-07-07T22:20:05.968Z,23.10
2018-07-07T22:22:34.990Z,23.10
2018-07-07T22:25:03.716Z,23.10
2018-07-07T22:27:32.550Z,23.10
2018-07-07T22:30:01.221Z,23.10
2018-07-07T22:32:34.315Z,23.10
2018-07-07T22:35:08.478Z,23.10
2018-07-07T22:37:37.172Z,23.10
2018-07-07T22:40:06.120Z,23.10
2018-07-07T22:42:34.837Z,23.10
2018-07-07T22:45:03.629Z,23.10
2018-07-07T22:47:32.311Z,23.10
2018-07-07T22:50:00.943Z,23.10
2018-07-07T22:52:32.910Z,23.00
2018-07-07T22:55:01.569Z,23.00
2018-07-07T22:57:30.327Z,22.90
2018-07-07T22:59:58.946Z,23.00
2018-07-07T23:02:27.884Z,22.90
2018-07-07T23:04:56.740Z,22.90
2018-07-07T23:07:25.376Z,22.90
2018-07-07T23:09:54.088Z,22.80
2018-07-07T23:12:22.700Z,22.80
2018-07-07T23:14:52.028Z,22.80
2018-07-07T23:17:20.708Z,22.90
2018-07-07T23:19:49.409Z,23.00
2018-07-07T23:22:33.960Z,23.10
2018-07-07T23:25:02.676Z,23.20
2018-07-07T23:27:31.405Z,23.30
2018-07-07T23:30:00.098Z,23.30
2018-07-07T23:32:28.828Z,23.40
2018-07-07T23:34:57.480Z,23.50
2018-07-07T23:37:26.096Z,23.50
2018-07-07T23:39:54.745Z,23.60
2018-07-07T23:42:24.615Z,23.60
2018-07-07T23:44:53.258Z,23.60
2018-07-07T23:47:21.901Z,23.70
2018-07-07T23:52:18.952Z,23.70
2018-07-07T23:54:47.633Z,23.80
2018-07-07T23:57:16.260Z,23.80
2018-07-07T23:59:44.929Z,23.80
